createdAt,value
2018-11-23T00:02:30.137Z,100.00
2018-11-23T00:04:59.830Z,100.00
2018-11-23T00:07:31.042Z,100.00
2018-11-23T00:10:01.166Z,100.00
2018-11-23T00:12:31.713Z,100.00
2018-11-23T00:15:02.014Z,100.00
2018-11-23T00:17:36.013Z,100.00
2018-11-23T00:20:07.497Z,100.00
2018-11-23T00:22:39.024Z,100.00
2018-11-23T00:25:12.263Z,100.00
2018-11-23T00:27:45.904Z,100.00
2018-11-23T00:30:17.315Z,100.00
2018-11-23T00:32:47.409Z,100.00
2018-11-23T00:35:20.506Z,100.00
2018-11-23T00:37:54.492Z,100.00
2018-11-23T00:40:28.308Z,100.00
2018-11-23T00:43:00.517Z,100.00
2018-11-23T00:45:31.024Z,100.00
2018-11-23T00:48:01.578Z,100.00
2018-11-23T00:50:33.014Z,100.00
2018-11-23T00:53:05.431Z,100.00
2018-11-23T00:55:35.046Z,100.00
2018-11-23T00:58:05.215Z,100.00
2018-11-23T01:00:38.566Z,100.00
2018-11-23T01:03:15.087Z,100.00
2018-11-23T01:05:45.254Z,100.00
2018-11-23T01:08:15.426Z,100.00
2018-11-23T01:10:46.171Z,100.00
2018-11-23T01:13:17.315Z,100.00
2018-11-23T01:15:49.264Z,100.00
2018-11-23T01:18:20.291Z,100.00
2018-11-23T01:20:50.487Z,100.00
2018-11-23T01:23:20.181Z,100.00
2018-11-23T01:25:51.263Z,100.00
2018-11-23T01:28:21.154Z,100.00
2018-11-23T01:30:51.396Z,100.00
2018-11-23T01:33:22.263Z,100.00
2018-11-23T01:35:52.411Z,100.00
2018-11-23T01:38:22.334Z,100.00
2018-11-23T01:40:53.766Z,100.00
2018-11-23T01:43:31.850Z,100.00
2018-11-23T01:46:02.363Z,100.00
2018-11-23T01:48:33.433Z,100.00
2018-11-23T01:51:03.446Z,100.00
2018-11-23T01:53:33.296Z,100.00
2018-11-23T01:56:04.373Z,100.00
2018-11-23T01:58:34.415Z,100.00
2018-11-23T02:01:04.370Z,100.00
2018-11-23T02:03:37.323Z,100.00
2018-11-23T02:06:07.062Z,100.00
2018-11-23T02:08:38.350Z,100.00
2018-11-23T02:11:10.354Z,100.00
2018-11-23T02:13:40.602Z,100.00
2018-11-23T02:16:10.658Z,100.00
2018-11-23T02:18:41.365Z,100.00
2018-11-23T02:21:13.659Z,100.00
2018-11-23T02:23:43.475Z,100.00
2018-11-23T02:26:13.602Z,100.00
2018-11-23T02:28:44.500Z,100.00
2018-11-23T02:31:16.848Z,100.00
2018-11-23T02:33:48.404Z,100.00
2018-11-23T02:36:26.049Z,100.00
2018-11-23T02:39:05.815Z,100.00
2018-11-23T02:41:37.879Z,100.00
2018-11-23T02:44:07.515Z,100.00
2018-11-23T02:46:38.536Z,100.00
2018-11-23T02:49:09.357Z,100.00
2018-11-23T02:51:39.510Z,100.00
2018-11-23T02:54:12.782Z,100.00
2018-11-23T02:56:45.914Z,100.00
2018-11-23T02:59:16.591Z,100.00
2018-11-23T03:01:47.810Z,100.00
2018-11-23T03:04:17.720Z,100.00
2018-11-23T03:06:48.730Z,100.00
2018-11-23T03:09:18.688Z,100.00
2018-11-23T03:11:48.785Z,100.00
2018-11-23T03:14:19.817Z,100.00
2018-11-23T03:16:52.703Z,100.00
2018-11-23T03:19:22.684Z,100.00
2018-11-23T03:21:54.779Z,100.00
2018-11-23T03:24:27.543Z,100.00
2018-11-23T03:26:59.748Z,100.00
2018-11-23T03:29:29.818Z,100.00
2018-11-23T03:32:00.591Z,100.00
2018-11-23T03:34:30.808Z,100.00
2018-11-23T03:37:01.278Z,100.00
2018-11-23T03:39:34.141Z,100.00
2018-11-23T03:42:01.738Z,100.00
2018-11-23T03:44:32.171Z,100.00
2018-11-23T03:47:01.815Z,100.00
2018-11-23T03:49:33.008Z,100.00
2018-11-23T03:52:03.024Z,100.00
2018-11-23T03:54:33.501Z,100.00
2018-11-23T03:57:03.856Z,100.00
2018-11-23T03:59:33.739Z,100.00
2018-11-23T04:02:04.014Z,100.00
2018-11-23T04:04:34.888Z,100.00
2018-11-23T04:07:05.047Z,100.00
2018-11-23T04:09:34.863Z,100.00
2018-11-23T04:12:06.174Z,100.00
2018-11-23T04:14:36.089Z,100.00
2018-11-23T04:17:06.658Z,100.00
2018-11-23T04:19:36.728Z,100.00
2018-11-23T04:22:07.102Z,100.00
2018-11-23T04:24:37.546Z,100.00
2018-11-23T04:27:07.340Z,100.00
2018-11-23T04:29:38.301Z,100.00
2018-11-23T04:32:07.953Z,100.00
2018-11-23T04:34:38.877Z,100.00
2018-11-23T04:37:11.868Z,100.00
2018-11-23T04:39:42.331Z,100.00
2018-11-23T04:42:12.955Z,100.00
2018-11-23T04:44:43.239Z,100.00
2018-11-23T04:47:13.198Z,100.00
2018-11-23T04:49:47.027Z,100.00
2018-11-23T04:52:17.457Z,100.00
2018-11-23T04:54:48.169Z,100.00
2018-11-23T04:57:18.358Z,100.00
2018-11-23T04:59:48.328Z,100.00
2018-11-23T05:02:19.034Z,100.00
2018-11-23T05:04:49.187Z,100.00
2018-11-23T05:07:19.325Z,100.00
2018-11-23T05:09:50.298Z,100.00
2018-11-23T05:12:21.542Z,100.00
2018-11-23T05:14:53.146Z,100.00
2018-11-23T05:17:24.327Z,100.00
2018-11-23T05:19:54.484Z,100.00
2018-11-23T05:22:25.404Z,100.00
2018-11-23T05:24:56.296Z,100.00
2018-11-23T05:27:26.357Z,100.00
2018-11-23T05:29:56.462Z,100.00
2018-11-23T05:32:28.387Z,100.00
2018-11-23T05:35:00.455Z,100.00
2018-11-23T05:37:31.471Z,100.00
2018-11-23T05:40:01.514Z,100.00
2018-11-23T05:42:33.317Z,100.00
2018-11-23T05:45:06.202Z,100.00
2018-11-23T05:47:38.323Z,100.00
2018-11-23T05:50:11.082Z,100.00
2018-11-23T05:52:41.596Z,100.00
2018-11-23T05:55:13.522Z,100.00
2018-11-23T05:57:45.336Z,100.00
2018-11-23T06:00:25.540Z,100.00
2018-11-23T06:02:55.455Z,100.00
2018-11-23T06:05:25.447Z,100.00
2018-11-23T06:07:55.654Z,100.00
2018-11-23T06:10:25.582Z,100.00
2018-11-23T06:12:56.755Z,100.00
2018-11-23T06:15:26.567Z,100.00
2018-11-23T06:17:56.494Z,100.00
2018-11-23T06:20:27.515Z,100.00
2018-11-23T06:22:57.622Z,100.00
2018-11-23T06:25:34.922Z,100.00
2018-11-23T06:28:04.599Z,100.00
2018-11-23T06:30:34.742Z,100.00
2018-11-23T06:33:17.604Z,100.00
2018-11-23T06:35:48.663Z,100.00
2018-11-23T06:38:20.719Z,100.00
2018-11-23T06:40:50.573Z,100.00
2018-11-23T06:43:22.743Z,100.00
2018-11-23T06:45:54.809Z,100.00
2018-11-23T06:48:24.597Z,100.00
2018-11-23T06:50:56.601Z,100.00
2018-11-23T06:53:28.768Z,100.00
2018-11-23T06:55:59.393Z,100.00
2018-11-23T06:58:29.461Z,100.00
2018-11-23T07:00:59.591Z,100.00
2018-11-23T07:03:32.759Z,100.00
2018-11-23T07:06:02.776Z,100.00
2018-11-23T07:08:33.738Z,100.00
2018-11-23T07:11:04.394Z,100.00
2018-11-23T07:13:34.992Z,100.00
2018-11-23T07:16:05.573Z,100.00
2018-11-23T07:18:38.107Z,100.00
2018-11-23T07:21:08.421Z,100.00
2018-11-23T07:23:38.844Z,100.00
2018-11-23T07:26:10.847Z,99.88
2018-11-23T07:28:42.942Z,98.42
2018-11-23T07:31:14.124Z,97.71
2018-11-23T07:33:45.753Z,97.31
2018-11-23T07:36:17.248Z,96.65
2018-11-23T07:38:50.022Z,95.93
2018-11-23T07:41:30.843Z,96.25
2018-11-23T07:44:02.766Z,96.24
2018-11-23T07:46:32.993Z,96.25
2018-11-23T07:49:02.823Z,96.15
2018-11-23T07:51:39.025Z,96.93
2018-11-23T07:54:05.023Z,96.70
2018-11-23T07:56:35.991Z,96.48
2018-11-23T07:59:10.749Z,96.84
2018-11-23T08:01:43.062Z,96.83
2018-11-23T08:04:15.173Z,96.03
2018-11-23T08:06:45.021Z,95.09
2018-11-23T08:09:20.280Z,94.86
2018-11-23T08:11:52.427Z,94.83
2018-11-23T08:14:23.367Z,95.18
2018-11-23T08:16:53.587Z,95.50
2018-11-23T08:19:24.105Z,95.99
2018-11-23T08:21:54.027Z,96.66
2018-11-23T08:24:25.050Z,96.83
2018-11-23T08:26:55.404Z,96.76
2018-11-23T08:29:25.107Z,97.36
2018-11-23T08:31:55.401Z,97.49
2018-11-23T08:34:26.088Z,97.77
2018-11-23T08:36:56.205Z,96.92
2018-11-23T08:39:26.085Z,97.02
2018-11-23T08:41:56.186Z,96.41
2018-11-23T08:44:27.289Z,97.03
2018-11-23T08:46:57.271Z,97.44
2018-11-23T08:49:30.418Z,97.00
2018-11-23T08:52:00.908Z,97.12
2018-11-23T08:54:31.444Z,96.99
2018-11-23T08:57:01.779Z,97.74
2018-11-23T08:59:32.123Z,97.34
2018-11-23T09:02:02.462Z,96.94
2018-11-23T09:04:33.062Z,96.94
2018-11-23T09:07:11.727Z,97.29
2018-11-23T09:09:42.382Z,97.48
2018-11-23T09:12:14.408Z,97.17
2018-11-23T09:14:46.567Z,97.12
2018-11-23T09:17:17.392Z,97.07
2018-11-23T09:19:49.523Z,97.06
2018-11-23T09:22:23.508Z,97.12
2018-11-23T09:24:50.442Z,97.07
2018-11-23T09:27:20.240Z,97.35
2018-11-23T09:29:51.220Z,97.03
2018-11-23T09:32:21.503Z,97.04
2018-11-23T09:34:51.955Z,97.10
2018-11-23T09:37:22.292Z,96.11
2018-11-23T09:39:52.821Z,96.15
2018-11-23T09:42:23.235Z,96.10
2018-11-23T09:44:53.743Z,95.97
2018-11-23T09:47:23.377Z,96.31
2018-11-23T09:49:54.303Z,96.63
2018-11-23T09:52:24.593Z,96.33
2018-11-23T09:54:54.695Z,96.05
2018-11-23T09:57:25.224Z,95.81
2018-11-23T09:59:55.434Z,96.16
2018-11-23T10:02:25.663Z,95.75
2018-11-23T10:04:56.385Z,95.37
2018-11-23T10:07:26.653Z,94.97
2018-11-23T10:09:56.687Z,94.27
2018-11-23T10:12:27.527Z,94.56
2018-11-23T10:14:57.671Z,94.30
2018-11-23T10:17:28.610Z,94.00
2018-11-23T10:19:58.690Z,94.50
2018-11-23T10:22:29.232Z,94.28
2018-11-23T10:24:59.704Z,93.75
2018-11-23T10:27:29.753Z,94.86
2018-11-23T10:30:01.301Z,94.14
2018-11-23T10:32:30.639Z,94.70
2018-11-23T10:35:01.667Z,94.30
2018-11-23T10:37:31.661Z,94.39
2018-11-23T10:40:02.842Z,93.44
2018-11-23T10:42:33.119Z,93.33
2018-11-23T10:45:03.629Z,93.05
2018-11-23T10:47:33.639Z,93.56
2018-11-23T10:50:03.770Z,93.52
2018-11-23T10:52:37.588Z,93.94
2018-11-23T10:55:10.295Z,94.13
2018-11-23T10:57:40.806Z,93.88
2018-11-23T11:01:17.576Z,93.45
2018-11-23T11:03:53.094Z,93.71
2018-11-23T11:06:28.781Z,93.01
2018-11-23T11:09:00.919Z,92.84
2018-11-23T11:11:31.828Z,92.94
2018-11-23T11:14:03.937Z,93.42
2018-11-23T11:16:35.546Z,93.61
2018-11-23T11:19:07.489Z,93.10
2018-11-23T11:21:38.381Z,92.89
2018-11-23T11:24:08.389Z,92.50
2018-11-23T11:26:44.727Z,92.06
2018-11-23T11:29:15.891Z,91.72
2018-11-23T11:31:45.943Z,91.73
2018-11-23T11:34:20.877Z,91.53
2018-11-23T11:36:54.967Z,90.85
2018-11-23T11:39:28.759Z,91.03
2018-11-23T11:42:00.045Z,91.06
2018-11-23T11:44:31.845Z,91.22
2018-11-23T11:47:01.478Z,91.73
2018-11-23T11:49:36.924Z,91.62
2018-11-23T11:52:07.402Z,91.04
2018-11-23T11:54:37.084Z,90.87
2018-11-23T11:57:07.136Z,91.31
2018-11-23T11:59:37.039Z,91.12
2018-11-23T12:02:10.277Z,91.02
2018-11-23T12:04:40.050Z,91.33
2018-11-23T12:07:11.162Z,91.24
2018-11-23T12:09:40.979Z,91.45
2018-11-23T12:12:11.085Z,90.98
2018-11-23T12:14:42.235Z,90.93
2018-11-23T12:17:15.237Z,90.68
2018-11-23T12:19:46.438Z,90.10
2018-11-23T12:22:16.750Z,90.46
2018-11-23T12:24:46.963Z,90.87
2018-11-23T12:27:17.134Z,90.71
2018-11-23T12:29:47.647Z,90.32
2018-11-23T12:32:18.209Z,90.82
2018-11-23T12:34:48.707Z,90.79
2018-11-23T12:37:18.817Z,90.64
2018-11-23T12:39:49.188Z,90.89
2018-11-23T12:42:19.765Z,90.72
2018-11-23T12:44:49.956Z,91.65
2018-11-23T12:47:20.343Z,91.54
2018-11-23T12:49:50.936Z,91.28
2018-11-23T12:52:21.273Z,91.29
2018-11-23T12:54:51.408Z,91.35
2018-11-23T12:57:22.244Z,92.21
2018-11-23T12:59:52.453Z,91.61
2018-11-23T13:02:22.921Z,91.66
2018-11-23T13:04:53.474Z,92.12
2018-11-23T13:07:23.992Z,91.81
2018-11-23T13:09:54.389Z,91.43
2018-11-23T13:12:24.414Z,91.87
2018-11-23T13:14:55.207Z,92.47
2018-11-23T13:17:25.580Z,92.66
2018-11-23T13:19:55.520Z,93.28
2018-11-23T13:22:26.218Z,92.47
2018-11-23T13:24:56.484Z,92.57
2018-11-23T13:27:26.480Z,93.07
2018-11-23T13:29:57.154Z,93.17
2018-11-23T13:32:27.466Z,92.71
2018-11-23T13:34:57.573Z,92.56
2018-11-23T13:37:28.153Z,92.70
2018-11-23T13:39:58.429Z,92.71
2018-11-23T13:42:28.950Z,91.70
2018-11-23T13:44:59.081Z,92.01
2018-11-23T13:47:29.518Z,92.35
2018-11-23T13:49:59.849Z,92.17
2018-11-23T13:52:30.115Z,91.78
2018-11-23T13:55:00.506Z,92.18
2018-11-23T13:57:30.895Z,92.20
2018-11-23T14:00:00.639Z,92.57
2018-11-23T14:02:31.340Z,92.12
2018-11-23T14:05:01.623Z,91.87
2018-11-23T14:07:31.850Z,91.77
2018-11-23T14:10:11.001Z,92.32
2018-11-23T14:12:41.857Z,91.93
2018-11-23T14:15:14.856Z,91.58
2018-11-23T14:17:46.542Z,91.95
2018-11-23T14:20:18.616Z,91.10
2018-11-23T14:22:48.655Z,91.43
2018-11-23T14:25:23.536Z,91.84
2018-11-23T14:27:59.816Z,92.30
2018-11-23T14:30:33.657Z,92.52
2018-11-23T14:33:05.556Z,91.90
2018-11-23T14:35:36.855Z,92.54
2018-11-23T14:38:06.486Z,92.19
2018-11-23T14:40:36.540Z,91.62
2018-11-23T14:43:06.816Z,91.38
2018-11-23T14:45:36.906Z,92.04
2018-11-23T14:48:08.957Z,91.82
2018-11-23T14:50:46.157Z,91.47
2018-11-23T14:53:17.808Z,91.66
2018-11-23T14:55:48.626Z,92.15
2018-11-23T14:58:20.889Z,92.46
2018-11-23T15:00:51.942Z,92.56
2018-11-23T15:03:21.917Z,93.15
2018-11-23T15:05:52.871Z,93.86
2018-11-23T15:08:22.812Z,93.81
2018-11-23T15:10:52.979Z,93.02
2018-11-23T15:13:23.945Z,92.89
2018-11-23T15:15:54.074Z,93.25
2018-11-23T15:18:25.003Z,92.47
2018-11-23T15:20:55.155Z,92.88
2018-11-23T15:23:24.866Z,93.28
2018-11-23T15:25:56.075Z,92.99
2018-11-23T15:28:26.075Z,93.35
2018-11-23T15:30:57.882Z,93.70
2018-11-23T15:33:29.925Z,93.68
2018-11-23T15:36:00.981Z,93.66
2018-11-23T15:38:31.180Z,93.85
2018-11-23T15:41:01.738Z,93.87
2018-11-23T15:43:32.070Z,93.66
2018-11-23T15:46:02.319Z,93.52
2018-11-23T15:48:32.806Z,93.66
2018-11-23T15:51:07.491Z,93.54
2018-11-23T15:53:45.083Z,92.79
2018-11-23T15:56:15.314Z,93.66
2018-11-23T15:58:48.936Z,93.34
2018-11-23T16:01:19.476Z,93.74
2018-11-23T16:03:49.908Z,94.12
2018-11-23T16:06:20.291Z,93.91
2018-11-23T16:08:50.148Z,93.76
2018-11-23T16:11:20.805Z,94.45
2018-11-23T16:13:51.103Z,94.25
2018-11-23T16:16:21.607Z,94.42
2018-11-23T16:18:51.931Z,94.21
2018-11-23T16:21:22.228Z,93.41
2018-11-23T16:23:52.183Z,93.59
2018-11-23T16:26:23.130Z,93.37
2018-11-23T16:28:53.319Z,93.50
2018-11-23T16:31:23.846Z,93.51
2018-11-23T16:33:54.136Z,93.63
2018-11-23T16:36:24.333Z,93.98
2018-11-23T16:38:54.362Z,94.08
2018-11-23T16:41:25.150Z,93.60
2018-11-23T16:43:55.543Z,93.73
2018-11-23T16:46:25.190Z,93.78
2018-11-23T16:48:56.302Z,93.62
2018-11-23T16:51:26.285Z,93.97
2018-11-23T16:56:33.329Z,94.72
2018-11-23T16:59:04.199Z,94.53
2018-11-23T17:01:34.338Z,94.94
2018-11-23T17:04:06.241Z,95.01
2018-11-23T17:06:37.559Z,95.16
2018-11-23T17:09:08.921Z,94.97
2018-11-23T17:11:41.599Z,94.99
2018-11-23T17:14:11.362Z,95.11
2018-11-23T17:16:42.427Z,95.64
2018-11-23T17:19:14.487Z,95.54
2018-11-23T17:21:45.751Z,95.53
2018-11-23T17:24:16.744Z,95.66
2018-11-23T17:26:46.655Z,95.78
2018-11-23T17:29:23.167Z,95.26
2018-11-23T17:31:53.757Z,95.82
2018-11-23T17:34:24.491Z,96.04
2018-11-23T17:36:54.648Z,96.05
2018-11-23T17:39:24.687Z,95.91
2018-11-23T17:41:55.600Z,96.09
2018-11-23T17:44:25.802Z,95.88
2018-11-23T17:46:56.552Z,95.83
2018-11-23T17:49:26.753Z,96.35
2018-11-23T17:51:57.608Z,95.98
2018-11-23T17:54:31.445Z,96.08
2018-11-23T17:57:03.510Z,95.79
2018-11-23T17:59:43.436Z,96.29
2018-11-23T18:02:16.067Z,95.79
2018-11-23T18:04:48.188Z,96.20
2018-11-23T18:07:21.337Z,96.33
2018-11-23T18:09:53.753Z,95.90
2018-11-23T18:12:24.727Z,95.70
2018-11-23T18:14:54.779Z,95.52
2018-11-23T18:17:25.158Z,95.79
2018-11-23T18:19:55.589Z,95.67
2018-11-23T18:22:25.783Z,95.87
2018-11-23T18:24:56.174Z,96.27
2018-11-23T18:27:26.569Z,96.10
2018-11-23T18:29:56.659Z,95.58
2018-11-23T18:32:26.962Z,95.47
2018-11-23T18:34:57.687Z,95.82
2018-11-23T18:37:27.983Z,96.10
2018-11-23T18:39:58.278Z,96.67
2018-11-23T18:42:28.619Z,95.96
2018-11-23T18:44:58.926Z,96.15
2018-11-23T18:47:30.039Z,96.18
2018-11-23T18:50:00.061Z,96.71
2018-11-23T18:52:30.266Z,96.67
2018-11-23T18:55:00.359Z,96.47
2018-11-23T18:57:30.686Z,96.57
2018-11-23T19:00:00.926Z,96.59
2018-11-23T19:02:31.334Z,96.61
2018-11-23T19:05:01.715Z,96.37
2018-11-23T19:07:32.238Z,96.42
2018-11-23T19:10:02.024Z,96.38
2018-11-23T19:12:32.989Z,96.45
2018-11-23T19:15:03.515Z,96.61
2018-11-23T19:17:33.182Z,96.54
2018-11-23T19:20:04.293Z,96.12
2018-11-23T19:22:34.219Z,96.58
2018-11-23T19:25:05.024Z,96.54
2018-11-23T19:27:35.451Z,95.96
2018-11-23T19:30:06.008Z,96.32
2018-11-23T19:32:35.960Z,96.38
2018-11-23T19:35:07.010Z,95.91
2018-11-23T19:37:36.762Z,95.71
2018-11-23T19:40:09.126Z,95.84
2018-11-23T19:42:40.296Z,95.84
2018-11-23T19:45:15.377Z,95.74
2018-11-23T19:47:47.106Z,95.32
2018-11-23T19:50:22.784Z,95.50
2018-11-23T19:52:54.029Z,95.23
2018-11-23T19:55:24.194Z,95.81
2018-11-23T19:57:54.812Z,95.80
2018-11-23T20:00:26.316Z,96.00
2018-11-23T20:02:56.030Z,95.60
2018-11-23T20:05:26.137Z,95.68
2018-11-23T20:07:57.292Z,95.50
2018-11-23T20:10:27.170Z,95.58
2018-11-23T20:12:57.923Z,95.68
2018-11-23T20:15:28.026Z,95.66
2018-11-23T20:17:58.397Z,95.28
2018-11-23T20:20:28.825Z,95.69
2018-11-23T20:22:59.236Z,95.69
2018-11-23T20:25:34.725Z,95.68
2018-11-23T20:28:05.285Z,95.18
2018-11-23T20:30:42.387Z,95.58
2018-11-23T20:33:08.820Z,95.40
2018-11-23T20:35:39.384Z,94.98
2018-11-23T20:38:09.287Z,94.76
2018-11-23T20:40:40.374Z,94.38
2018-11-23T20:43:12.256Z,95.00
2018-11-23T20:45:43.476Z,94.12
2018-11-23T20:48:15.517Z,93.83
2018-11-23T20:50:47.439Z,94.51
2018-11-23T20:53:17.928Z,94.59
2018-11-23T20:55:48.290Z,94.72
2018-11-23T20:58:18.363Z,94.75
2018-11-23T21:00:54.367Z,94.95
2018-11-23T21:03:24.684Z,95.47
2018-11-23T21:05:55.591Z,95.08
2018-11-23T21:08:25.457Z,94.78
2018-11-23T21:10:56.652Z,94.83
2018-11-23T21:13:26.530Z,94.73
2018-11-23T21:15:56.579Z,94.71
2018-11-23T21:18:30.637Z,94.71
2018-11-23T21:21:00.686Z,94.59
2018-11-23T21:23:30.758Z,94.78
2018-11-23T21:26:00.527Z,94.92
2018-11-23T21:28:32.466Z,94.67
2018-11-23T21:31:04.785Z,94.75
2018-11-23T21:33:35.292Z,94.79
2018-11-23T21:36:05.555Z,95.08
2018-11-23T21:38:35.625Z,94.65
2018-11-23T21:41:05.546Z,94.93
2018-11-23T21:43:36.572Z,95.34
2018-11-23T21:46:06.738Z,95.67
2018-11-23T21:48:36.699Z,95.28
2018-11-23T21:51:07.895Z,95.03
2018-11-23T21:53:38.630Z,95.18
2018-11-23T21:56:09.508Z,95.09
2018-11-23T21:58:38.746Z,94.96
2018-11-23T22:01:08.836Z,95.01
2018-11-23T22:03:38.568Z,94.86
2018-11-23T22:06:08.958Z,95.43
2018-11-23T22:08:39.912Z,95.08
2018-11-23T22:11:09.543Z,94.81
2018-11-23T22:13:43.743Z,94.93
2018-11-23T22:16:14.381Z,94.33
2018-11-23T22:18:44.712Z,94.06
2018-11-23T22:21:14.711Z,94.13
2018-11-23T22:23:45.627Z,94.25
2018-11-23T22:26:16.167Z,94.25
2018-11-23T22:28:45.904Z,93.94
2018-11-23T22:31:16.863Z,93.82
2018-11-23T22:33:47.207Z,94.26
2018-11-23T22:36:26.810Z,94.48
2018-11-23T22:38:57.793Z,94.39
2018-11-23T22:41:30.835Z,94.41
2018-11-23T22:44:00.927Z,93.86
2018-11-23T22:46:31.959Z,94.51
2018-11-23T22:49:04.032Z,94.37
2018-11-23T22:51:34.918Z,94.39
2018-11-23T22:54:06.301Z,94.24
2018-11-23T22:56:36.006Z,94.31
2018-11-23T22:59:06.478Z,94.34
2018-11-23T23:01:36.607Z,94.33
2018-11-23T23:04:07.061Z,93.92
2018-11-23T23:06:37.566Z,94.06
2018-11-23T23:09:09.932Z,94.47
2018-11-23T23:11:43.030Z,94.30
2018-11-23T23:14:15.071Z,94.14
2018-11-23T23:16:44.909Z,94.44
2018-11-23T23:19:15.918Z,94.24
2018-11-23T23:21:49.380Z,94.42
2018-11-23T23:24:19.122Z,94.42
2018-11-23T23:26:49.044Z,94.29
2018-11-23T23:29:20.004Z,94.84
2018-11-23T23:31:50.348Z,94.49
2018-11-23T23:34:19.968Z,94.55
2018-11-23T23:36:50.216Z,94.88
2018-11-23T23:39:21.181Z,95.25
2018-11-23T23:41:51.315Z,95.07
2018-11-23T23:44:21.119Z,95.38
2018-11-23T23:46:53.274Z,95.58
2018-11-23T23:49:25.104Z,95.61
2018-11-23T23:51:56.215Z,95.83
2018-11-23T23:54:26.216Z,95.77
2018-11-23T23:56:56.215Z,96.01
2018-11-23T23:59:26.177Z,96.22
